Time;durP1;ratioP1;P1;durP2;ratioP2;P2;SDS_P1;SDS_P2;PMS_P1;PMS_P2;Temp;Humidity;BMP_temperature;BMP_pressure;BME280_temperature;BME280_humidity;BME280_pressure;Samples;Min_cycle;Max_cycle;Signal;HPM_P1;HPM_P2
2021/12/16 00:09:06;;;;;;;19.25;7.43;;;8.00;99.90;;;;;;5074563;28;20053;-79
2021/12/16 00:35:48;;;;;;;19.83;7.13;;;8.20;99.90;;;;;;5071959;28;20046;-79
2021/12/16 00:38:14;;;;;;;16.38;7.53;;;8.60;99.90;;;;;;5082823;28;20520;-80
2021/12/16 00:40:42;;;;;;;17.20;7.68;;;9.20;99.90;;;;;;5092278;28;20055;-79
2021/12/16 00:43:30;;;;;;;22.23;7.15;;;8.30;99.90;;;;;;5074982;28;20046;-79
2021/12/16 00:48:25;;;;;;;16.83;6.47;;;7.50;99.90;;;;;;5083436;28;20081;-80
2021/12/16 00:56:13;;;;;;;13.80;6.35;;;8.30;99.90;;;;;;5086168;28;20048;-81
2021/12/16 00:58:48;;;;;;;17.25;6.68;;;9.20;99.90;;;;;;5054202;28;20382;-81
2021/12/16 01:47:11;;;;;;;19.38;6.53;;;8.40;99.90;;;;;;5070974;28;20050;-79
2021/12/16 01:52:36;;;;;;;19.30;7.85;;;8.40;99.90;;;;;;5073328;28;20058;-79
2021/12/16 01:55:15;;;;;;;18.08;5.80;;;8.20;99.90;;;;;;5065242;28;20492;-80
2021/12/16 01:57:46;;;;;;;11.80;5.25;;;8.40;99.90;;;;;;5089862;28;20044;-80
2021/12/16 02:00:26;;;;;;;17.33;7.15;;;8.40;99.90;;;;;;5053572;28;20042;-80
2021/12/16 02:02:58;;;;;;;23.42;6.80;;;8.40;99.90;;;;;;5053822;28;20638;-80
2021/12/16 02:08:26;;;;;;;12.00;6.35;;;8.40;99.90;;;;;;5079270;28;20053;-79
2021/12/16 02:11:21;;;;;;;19.25;6.30;;;8.00;99.90;;;;;;5094207;28;20067;-80
2021/12/16 02:37:44;;;;;;;13.82;6.55;;;8.00;99.90;;;;;;5090091;28;20501;-80
2021/12/16 02:40:10;;;;;;;19.70;6.70;;;8.40;99.90;;;;;;5093402;28;20131;-80
2021/12/16 02:42:50;;;;;;;20.23;6.50;;;8.40;99.90;;;;;;5092033;28;20043;-81
2021/12/16 02:50:44;;;;;;;20.58;6.47;;;8.30;99.90;;;;;;5119460;27;20078;-80
2021/12/16 02:53:09;;;;;;;19.05;6.18;;;8.30;99.90;;;;;;5106752;28;20626;-81
2021/12/16 02:55:35;;;;;;;16.95;7.07;;;8.30;99.90;;;;;;5095269;28;20410;-81
2021/12/16 02:58:01;;;;;;;23.20;6.95;;;8.30;99.90;;;;;;5074914;28;20467;-79
2021/12/16 03:00:35;;;;;;;14.98;6.43;;;8.30;99.90;;;;;;5112427;27;20050;-81
2021/12/16 03:03:01;;;;;;;;;;;8.30;99.90;;;;;;5089979;28;20479;-80
2021/12/16 03:05:27;;;;;;;12.43;6.53;;;8.30;99.90;;;;;;5079134;27;19972;-80
2021/12/16 03:07:53;;;;;;;18.10;6.30;;;8.30;99.90;;;;;;5096069;28;20044;-80
2021/12/16 03:18:17;;;;;;;12.57;7.00;;;8.20;99.90;;;;;;5054634;28;20583;-81
2021/12/16 03:21:11;;;;;;;18.63;7.35;;;8.10;99.90;;;;;;5086079;28;20414;-80
2021/12/16 03:36:49;;;;;;;20.70;7.53;;;7.80;99.90;;;;;;5066913;28;20096;-80
2021/12/16 03:39:16;;;;;;;19.40;7.13;;;7.80;99.90;;;;;;5035830;28;20116;-81
2021/12/16 03:41:43;;;;;;;15.95;7.28;;;7.70;99.90;;;;;;4997268;28;20046;-79
2021/12/16 03:44:13;;;;;;;20.50;8.27;;;7.70;99.90;;;;;;5034035;28;20063;-80
2021/12/16 03:46:49;;;;;;;14.90;8.27;;;7.70;99.90;;;;;;5037051;28;20475;-80
2021/12/16 03:49:20;;;;;;;22.40;7.95;;;7.60;99.90;;;;;;5015628;28;20051;-80
2021/12/16 03:51:52;;;;;;;16.83;7.32;;;7.60;99.90;;;;;;5048393;28;20439;-80
2021/12/16 03:54:31;;;;;;;13.10;7.55;;;7.60;99.90;;;;;;5005617;28;20931;-80
2021/12/16 03:57:02;;;;;;;17.77;7.85;;;7.50;99.90;;;;;;5064459;28;20062;-81
2021/12/16 03:59:31;;;;;;;18.00;7.53;;;8.00;99.90;;;;;;5011570;28;20464;-80
2021/12/16 04:02:00;;;;;;;16.15;7.53;;;7.40;99.90;;;;;;5051947;28;20045;-80
2021/12/16 04:04:26;;;;;;;20.38;7.78;;;7.30;99.90;;;;;;5030581;28;20043;-80
2021/12/16 04:06:53;;;;;;;14.98;7.55;;;7.30;99.90;;;;;;5045922;28;20047;-80
2021/12/16 04:09:19;;;;;;;11.15;6.25;;;7.20;99.90;;;;;;5017153;28;20443;-80
2021/12/16 04:11:56;;;;;;;20.00;7.95;;;7.20;99.90;;;;;;5065014;28;20422;-79
2021/12/16 04:14:22;;;;;;;17.15;7.72;;;8.60;99.90;;;;;;5047173;28;20419;-80
2021/12/16 04:16:52;;;;;;;17.88;8.02;;;6.90;99.90;;;;;;5045793;28;20444;-80
2021/12/16 04:19:22;;;;;;;21.95;7.85;;;7.20;99.90;;;;;;5067238;28;20388;-80
2021/12/16 04:21:53;;;;;;;15.65;7.28;;;7.20;99.90;;;;;;5035836;28;20517;-80
2021/12/16 04:24:19;;;;;;;16.70;7.35;;;7.10;99.90;;;;;;5066889;28;20044;-81
2021/12/16 04:26:47;;;;;;;20.80;7.65;;;7.10;99.90;;;;;;5049193;28;20096;-81
2021/12/16 04:29:13;;;;;;;14.40;6.95;;;7.40;99.90;;;;;;5075695;27;20038;-80
2021/12/16 04:31:41;;;;;;;20.02;7.72;;;7.10;99.90;;;;;;5044490;28;20048;-79
2021/12/16 04:34:07;;;;;;;14.02;6.80;;;7.10;99.90;;;;;;5028217;28;20058;-79
2021/12/16 04:36:34;;;;;;;21.50;7.57;;;7.10;99.90;;;;;;5019224;28;20045;-81
2021/12/16 04:39:01;;;;;;;19.27;7.72;;;7.00;99.90;;;;;;5028987;28;20050;-80
2021/12/16 04:41:27;;;;;;;15.23;7.43;;;7.00;99.90;;;;;;5066632;28;20116;-81
2021/12/16 04:43:55;;;;;;;15.52;7.70;;;7.00;99.90;;;;;;5033413;28;20047;-81
2021/12/16 04:46:26;;;;;;;22.23;8.90;;;8.20;99.90;;;;;;5046865;28;20124;-80
2021/12/16 04:48:55;;;;;;;16.75;8.20;;;6.90;99.90;;;;;;5050354;28;20474;-81
2021/12/16 04:51:23;;;;;;;15.73;7.90;;;6.90;99.90;;;;;;5059710;28;20376;-80
2021/12/16 04:53:49;;;;;;;20.58;8.30;;;6.90;99.90;;;;;;5028723;28;20063;-81
2021/12/16 04:56:16;;;;;;;17.38;7.20;;;6.80;99.90;;;;;;5053698;28;20052;-79
2021/12/16 04:58:46;;;;;;;13.70;6.88;;;6.80;99.90;;;;;;5042233;28;20042;-81
2021/12/16 05:01:12;;;;;;;21.60;7.53;;;6.90;99.90;;;;;;5030624;28;20039;-81
2021/12/16 05:03:38;;;;;;;14.50;7.43;;;6.80;99.90;;;;;;5046233;27;20097;-80
2021/12/16 05:06:08;;;;;;;23.98;9.60;;;6.70;99.90;;;;;;5050914;28;20046;-80
2021/12/16 05:08:34;;;;;;;26.70;9.43;;;6.80;99.90;;;;;;5044648;28;20392;-80
2021/12/16 05:11:03;;;;;;;13.00;7.95;;;7.70;99.90;;;;;;5048343;28;20044;-81
2021/12/16 05:13:30;;;;;;;14.25;7.22;;;6.70;99.90;;;;;;5087884;28;20180;-81
2021/12/16 05:16:02;;;;;;;21.58;7.70;;;7.70;99.90;;;;;;5011840;28;20037;-81
2021/12/16 05:18:34;;;;;;;17.35;7.40;;;8.10;99.90;;;;;;5080921;28;20054;-79
2021/12/16 05:21:04;;;;;;;23.30;7.70;;;6.70;99.90;;;;;;5071654;28;20051;-79
2021/12/16 05:26:28;;;;;;;21.48;8.85;;;5.60;99.90;;;;;;5017769;28;20053;-79
2021/12/16 05:28:57;;;;;;;18.67;8.48;;;8.10;99.90;;;;;;5044889;28;20443;-79
2021/12/16 05:31:25;;;;;;;23.30;9.05;;;6.70;99.90;;;;;;5056708;28;20042;-80
2021/12/16 05:33:54;;;;;;;15.82;8.73;;;6.70;99.90;;;;;;5048996;28;20050;-79
2021/12/16 05:36:20;;;;;;;22.40;9.25;;;6.70;99.90;;;;;;5069570;28;20046;-79
2021/12/16 05:38:46;;;;;;;18.20;8.63;;;7.40;99.90;;;;;;5051483;28;20139;-79
2021/12/16 05:41:15;;;;;;;16.65;8.55;;;6.80;99.90;;;;;;5074820;28;20502;-80
2021/12/16 05:43:42;;;;;;;19.70;8.88;;;6.80;99.90;;;;;;5070872;28;20045;-80
2021/12/16 05:46:09;;;;;;;20.85;8.75;;;6.80;99.90;;;;;;5077549;28;20055;-79
2021/12/16 05:48:38;;;;;;;23.92;10.13;;;6.80;99.90;;;;;;5059267;28;20058;-80
2021/12/16 05:51:13;;;;;;;21.05;8.90;;;6.80;99.90;;;;;;5072057;28;20042;-79
2021/12/16 05:53:41;;;;;;;18.90;7.40;;;6.80;99.90;;;;;;5088378;28;20051;-80
2021/12/16 05:56:06;;;;;;;17.63;7.78;;;6.80;99.90;;;;;;5077689;28;20470;-80
2021/12/16 05:58:33;;;;;;;20.38;9.05;;;6.80;99.90;;;;;;5081007;28;20075;-79
2021/12/16 06:01:08;;;;;;;19.52;8.98;;;6.80;99.90;;;;;;5064463;28;20117;-80
2021/12/16 06:03:34;;;;;;;21.33;8.43;;;6.80;99.90;;;;;;5080583;28;20047;-80
2021/12/16 06:06:01;;;;;;;22.48;8.38;;;6.80;99.90;;;;;;5059846;28;20042;-80
2021/12/16 06:08:27;;;;;;;26.75;10.13;;;6.80;99.90;;;;;;5078036;28;20054;-79
2021/12/16 06:13:35;;;;;;;20.92;8.68;;;6.90;99.90;;;;;;5089222;28;20050;-79
2021/12/16 06:22:26;;;;;;;19.60;9.73;;;6.80;99.90;;;;;;5094582;28;20047;-80
2021/12/16 06:29:25;;;;;;;16.95;8.90;;;6.80;99.90;;;;;;5087007;28;20050;-82
2021/12/16 06:31:51;;;;;;;14.55;8.68;;;6.80;99.90;;;;;;5078396;28;20042;-83
2021/12/16 06:34:17;;;;;;;14.88;7.82;;;6.80;99.90;;;;;;5058156;28;20037;-83
2021/12/16 06:36:42;;;;;;;14.43;8.15;;;6.80;99.90;;;;;;5064014;28;20143;-79
2021/12/16 06:39:08;;;;;;;20.67;9.02;;;6.60;99.90;;;;;;5071939;28;20738;-79
2021/12/16 06:41:43;;;;;;;13.50;8.30;;;6.80;99.90;;;;;;4712446;28;9999966;-80
2021/12/16 06:44:22;;;;;;;18.35;7.97;;;6.80;99.90;;;;;;5077261;28;20047;-81
2021/12/16 06:46:50;;;;;;;16.52;8.25;;;6.70;99.90;;;;;;5036372;28;20045;-81
2021/12/16 06:49:18;;;;;;;17.77;8.70;;;6.60;99.90;;;;;;5077184;28;20532;-81
2021/12/16 06:51:51;;;;;;;19.05;8.30;;;6.70;99.90;;;;;;5074146;28;20046;-81
2021/12/16 06:54:25;;;;;;;17.63;8.18;;;6.70;99.90;;;;;;5053462;28;20413;-81
2021/12/16 06:59:40;;;;;;;17.17;7.78;;;6.60;99.90;;;;;;5033377;28;20057;-80
2021/12/16 07:02:15;;;;;;;13.85;7.57;;;6.60;99.90;;;;;;5050731;28;20042;-80
2021/12/16 07:04:43;;;;;;;10.73;7.25;;;6.70;99.90;;;;;;5074612;28;20378;-79
2021/12/16 07:07:11;;;;;;;14.27;7.28;;;6.40;99.90;;;;;;5085111;28;20043;-80
2021/12/16 07:09:37;;;;;;;19.90;7.35;;;6.60;99.90;;;;;;5071427;28;20082;-80
2021/12/16 07:12:05;;;;;;;16.23;8.23;;;6.60;99.90;;;;;;5072036;28;20042;-79
2021/12/16 07:14:37;;;;;;;14.75;7.45;;;6.60;99.90;;;;;;5071386;28;20125;-80
2021/12/16 07:17:09;;;;;;;12.85;7.07;;;6.60;99.90;;;;;;5092806;28;20055;-80
2021/12/16 07:19:35;;;;;;;18.58;8.02;;;6.50;99.90;;;;;;5043486;28;20427;-80
2021/12/16 07:22:02;;;;;;;14.50;7.28;;;6.50;99.90;;;;;;5050179;28;20049;-80
2021/12/16 07:24:28;;;;;;;14.98;7.28;;;6.50;99.90;;;;;;5059353;28;20046;-80
2021/12/16 07:26:54;;;;;;;22.58;8.93;;;6.50;99.90;;;;;;5047769;28;20033;-80
2021/12/16 07:29:19;;;;;;;27.98;9.43;;;6.40;99.90;;;;;;5051682;28;20612;-80
2021/12/16 07:31:45;;;;;;;25.83;9.63;;;6.50;99.90;;;;;;5068035;28;20491;-79
2021/12/16 07:34:13;;;;;;;17.23;8.35;;;6.40;99.90;;;;;;5031072;28;20393;-79
2021/12/16 07:36:42;;;;;;;15.77;8.40;;;6.40;99.90;;;;;;5065023;28;20044;-79
2021/12/16 07:39:12;;;;;;;17.55;8.30;;;6.30;99.90;;;;;;5000213;27;20065;-81
2021/12/16 07:41:40;;;;;;;17.05;8.65;;;6.30;99.90;;;;;;5026261;28;20054;-80
2021/12/16 07:44:11;;;;;;;21.95;8.98;;;6.30;99.90;;;;;;5065948;28;20044;-80
2021/12/16 07:46:43;;;;;;;22.30;9.80;;;6.30;99.90;;;;;;5019075;28;20043;-80
2021/12/16 07:49:13;;;;;;;28.70;11.40;;;6.30;99.90;;;;;;5077263;28;20035;-80
2021/12/16 07:51:40;;;;;;;28.60;9.98;;;6.30;99.90;;;;;;4983151;28;20123;-79
2021/12/16 07:54:07;;;;;;;19.10;9.63;;;6.30;99.90;;;;;;5038625;28;20051;-80
2021/12/16 07:56:33;;;;;;;24.83;10.00;;;6.30;99.90;;;;;;5044903;28;20041;-80
2021/12/16 07:58:59;;;;;;;21.38;10.68;;;6.30;99.90;;;;;;5043328;28;20043;-80
2021/12/16 08:01:26;;;;;;;16.42;8.82;;;6.30;99.90;;;;;;5062027;28;20039;-80
2021/12/16 08:03:52;;;;;;;44.50;28.23;;;5.80;99.90;;;;;;5047364;28;20045;-80
2021/12/16 08:06:23;;;;;;;29.33;13.10;;;6.30;99.90;;;;;;5044837;28;20038;-80
2021/12/16 08:08:56;;;;;;;21.02;12.32;;;6.40;99.90;;;;;;5023452;28;20067;-80
2021/12/16 08:11:22;;;;;;;23.48;12.23;;;7.40;99.90;;;;;;5063866;28;20048;-80
2021/12/16 08:13:48;;;;;;;20.63;12.23;;;6.30;99.90;;;;;;5044521;28;20081;-80
2021/12/16 08:16:14;;;;;;;22.27;11.55;;;6.40;99.90;;;;;;5047305;28;20078;-80
2021/12/16 08:18:39;;;;;;;26.58;13.43;;;6.40;99.90;;;;;;5082045;28;20056;-80
2021/12/16 08:21:05;;;;;;;32.28;13.55;;;6.40;99.90;;;;;;5090991;28;20040;-81
2021/12/16 08:23:32;;;;;;;23.60;12.15;;;7.70;99.90;;;;;;5079626;28;20042;-80
2021/12/16 08:25:57;;;;;;;22.67;13.82;;;6.50;99.90;;;;;;5075136;28;20056;-80
2021/12/16 08:28:25;;;;;;;28.73;13.43;;;6.50;99.90;;;;;;5055967;28;20047;-81
2021/12/16 08:30:52;;;;;;;27.38;14.52;;;6.00;99.90;;;;;;5090762;28;20035;-80
2021/12/16 08:33:19;;;;;;;25.50;13.77;;;6.50;99.90;;;;;;5075260;28;20023;-80
2021/12/16 08:35:49;;;;;;;25.30;14.35;;;6.30;99.90;;;;;;5066730;28;20050;-80
2021/12/16 08:38:19;;;;;;;20.33;13.23;;;6.50;99.90;;;;;;5073355;28;20070;-80
2021/12/16 08:40:47;;;;;;;30.13;14.38;;;6.20;99.90;;;;;;5085131;28;20032;-80
2021/12/16 08:43:13;;;;;;;80.55;49.33;;;6.60;99.90;;;;;;5082144;28;20055;-79
2021/12/16 08:45:42;;;;;;;33.00;18.35;;;6.20;99.90;;;;;;5084140;28;20481;-80
2021/12/16 08:48:08;;;;;;;31.13;17.45;;;6.60;99.90;;;;;;5090657;28;20047;-80
2021/12/16 08:50:36;;;;;;;42.40;19.67;;;6.60;99.90;;;;;;5086026;28;20051;-80
2021/12/16 08:53:03;;;;;;;53.17;18.30;;;6.60;99.90;;;;;;5056400;28;20494;-79
2021/12/16 08:55:32;;;;;;;21.75;15.52;;;6.60;99.90;;;;;;5059633;28;20068;-80
2021/12/16 08:57:58;;;;;;;30.45;17.88;;;6.50;99.90;;;;;;5040716;28;20042;-80
2021/12/16 09:00:29;;;;;;;35.55;16.17;;;6.50;99.90;;;;;;5048635;28;20054;-80
2021/12/16 09:02:54;;;;;;;24.67;16.08;;;6.50;99.90;;;;;;5098606;28;20054;-80
2021/12/16 09:05:22;;;;;;;22.30;16.05;;;6.50;99.90;;;;;;5079446;28;20038;-81
2021/12/16 09:07:49;;;;;;;25.00;16.77;;;6.60;99.90;;;;;;5062490;28;20039;-80
2021/12/16 09:10:23;;;;;;;27.17;16.40;;;6.50;99.90;;;;;;5069221;28;20459;-80
2021/12/16 09:12:54;;;;;;;;;;;6.60;99.90;;;;;;5074238;28;20528;-80
2021/12/16 09:15:23;;;;;;;19.23;13.90;;;6.60;99.90;;;;;;5090117;28;20014;-80
2021/12/16 09:17:51;;;;;;;36.67;17.48;;;6.70;99.90;;;;;;5102264;28;20051;-80
2021/12/16 09:20:17;;;;;;;26.05;15.93;;;6.60;99.90;;;;;;5094904;28;20036;-80
2021/12/16 09:22:43;;;;;;;28.75;17.50;;;6.70;99.90;;;;;;5082767;28;20049;-80
2021/12/16 09:25:09;;;;;;;28.40;16.23;;;6.60;99.90;;;;;;5092397;28;20041;-81
2021/12/16 09:27:36;;;;;;;27.42;16.65;;;6.60;99.90;;;;;;5060931;28;20118;-79
2021/12/16 09:30:04;;;;;;;45.55;16.92;;;6.70;99.90;;;;;;5078855;28;20038;-79
2021/12/16 09:32:31;;;;;;;44.10;19.95;;;6.70;99.90;;;;;;5052634;28;20478;-80
2021/12/16 09:34:57;;;;;;;40.20;16.55;;;6.70;99.90;;;;;;5083842;28;20056;-80
2021/12/16 09:37:23;;;;;;;34.60;17.55;;;6.80;99.90;;;;;;5080189;28;20056;-79
2021/12/16 09:39:49;;;;;;;42.33;18.25;;;6.70;99.90;;;;;;4709544;28;10000044;-79
2021/12/16 09:42:14;;;;;;;80.15;20.60;;;6.70;99.90;;;;;;5080285;28;20069;-80
2021/12/16 09:44:40;;;;;;;28.73;17.02;;;7.10;99.90;;;;;;5058404;28;20038;-80
2021/12/16 09:47:12;;;;;;;41.67;17.10;;;6.70;99.90;;;;;;5091641;28;20053;-80
2021/12/16 09:49:38;;;;;;;29.65;16.77;;;6.70;99.90;;;;;;5064467;28;20052;-79
2021/12/16 09:52:06;;;;;;;35.80;16.52;;;6.70;99.90;;;;;;5080882;28;20041;-79
2021/12/16 09:54:34;;;;;;;100.22;19.92;;;6.80;99.90;;;;;;5079550;28;20054;-79
2021/12/16 09:57:01;;;;;;;93.53;18.45;;;6.80;99.90;;;;;;5086189;28;20483;-80
2021/12/16 09:59:30;;;;;;;27.52;17.92;;;6.80;99.90;;;;;;5062203;28;20046;-79
2021/12/16 10:01:59;;;;;;;36.75;19.17;;;6.80;99.90;;;;;;5093633;28;20494;-80
2021/12/16 10:04:31;;;;;;;76.45;22.85;;;6.80;99.90;;;;;;5094850;28;20401;-79
2021/12/16 10:07:00;;;;;;;49.00;20.05;;;6.90;99.90;;;;;;5080435;28;20053;-80
2021/12/16 10:09:27;;;;;;;35.47;16.35;;;6.90;99.90;;;;;;5062710;28;20054;-79
2021/12/16 10:11:57;;;;;;;59.88;18.48;;;6.90;99.90;;;;;;5076110;28;20079;-80
2021/12/16 10:19:41;;;;;;;83.75;20.50;;;6.90;99.90;;;;;;5083898;28;20058;-79
2021/12/16 10:22:31;;;;;;;100.05;20.67;;;6.90;99.90;;;;;;5076530;28;20642;-79
2021/12/16 10:25:30;;;;;;;104.93;21.83;;;7.00;99.90;;;;;;5093766;28;20491;-79
2021/12/16 10:28:07;;;;;;;115.65;20.77;;;7.00;99.90;;;;;;5055711;28;20738;-80
2021/12/16 10:30:58;;;;;;;82.05;23.15;;;7.00;99.90;;;;;;5073591;28;20042;-80
2021/12/16 10:33:38;;;;;;;129.73;28.15;;;7.00;99.90;;;;;;5047482;28;20049;-79
2021/12/16 10:36:12;;;;;;;88.22;20.80;;;7.10;99.90;;;;;;5103064;27;20117;-79
2021/12/16 10:38:42;;;;;;;50.58;21.48;;;7.10;99.90;;;;;;5071299;28;20058;-80
2021/12/16 10:41:11;;;;;;;65.22;21.05;;;7.10;99.90;;;;;;5092686;28;20122;-80
2021/12/16 10:43:42;;;;;;;105.43;23.60;;;7.00;99.90;;;;;;5069937;28;20046;-80
2021/12/16 10:46:15;;;;;;;122.28;22.48;;;7.30;99.90;;;;;;5069916;28;20038;-79
2021/12/16 10:48:42;;;;;;;61.83;21.20;;;7.20;99.90;;;;;;5082163;28;20808;-79
2021/12/16 10:51:23;;;;;;;87.40;19.10;;;7.20;99.90;;;;;;5076521;28;20043;-79
2021/12/16 10:53:54;;;;;;;122.93;18.05;;;7.30;99.90;;;;;;5077162;28;20038;-80
2021/12/16 10:56:35;;;;;;;110.95;17.10;;;7.40;99.90;;;;;;5078851;28;20479;-80
2021/12/16 10:59:03;;;;;;;125.15;20.45;;;7.30;99.90;;;;;;5091539;28;20043;-79
2021/12/16 11:01:35;;;;;;;38.83;17.25;;;7.30;99.90;;;;;;5077356;28;20042;-80
2021/12/16 11:04:04;;;;;;;127.80;19.77;;;7.30;99.90;;;;;;5081297;28;20035;-80
2021/12/16 11:06:37;;;;;;;61.42;15.93;;;7.40;99.90;;;;;;5083590;28;20135;-79
2021/12/16 11:09:24;;;;;;;109.75;18.25;;;7.20;99.90;;;;;;5086404;28;20039;-79
2021/12/16 11:12:25;;;;;;;72.85;17.35;;;7.40;99.90;;;;;;5015112;28;20048;-80
2021/12/16 11:15:02;;;;;;;136.18;21.33;;;7.40;99.90;;;;;;5086110;28;20584;-80
2021/12/16 11:17:53;;;;;;;107.05;17.20;;;7.40;99.90;;;;;;5068157;28;20053;-80
2021/12/16 11:20:41;;;;;;;88.28;16.83;;;7.40;99.90;;;;;;5047232;28;20130;-80
2021/12/16 11:23:12;;;;;;;106.57;17.83;;;7.50;99.90;;;;;;5055473;28;20164;-79
2021/12/16 11:25:41;;;;;;;99.60;15.73;;;7.50;99.90;;;;;;5077952;28;20508;-78
2021/12/16 11:28:12;;;;;;;137.43;18.90;;;7.50;99.90;;;;;;5093379;28;20039;-79
2021/12/16 11:30:58;;;;;;;112.43;18.52;;;7.50;99.90;;;;;;5071015;28;20097;-80
2021/12/16 11:33:42;;;;;;;107.50;18.27;;;7.50;99.90;;;;;;5100899;28;20408;-79
2021/12/16 11:36:11;;;;;;;119.78;19.80;;;7.40;99.90;;;;;;5077219;28;20304;-79
2021/12/16 11:39:08;;;;;;;47.47;17.35;;;7.50;99.90;;;;;;5051531;28;20064;-79
2021/12/16 11:41:41;;;;;;;74.10;20.63;;;7.50;99.90;;;;;;5051034;28;20148;-80
2021/12/16 11:44:16;;;;;;;39.55;16.42;;;7.60;99.90;;;;;;5077767;28;20040;-79
2021/12/16 11:46:56;;;;;;;62.83;17.48;;;7.80;99.90;;;;;;5067938;28;20077;-79
2021/12/16 11:49:41;;;;;;;93.15;17.42;;;7.60;99.90;;;;;;5058407;28;20043;-79
2021/12/16 11:52:09;;;;;;;28.48;16.25;;;7.70;99.90;;;;;;5073194;28;20080;-79
2021/12/16 11:54:43;;;;;;;97.38;22.05;;;7.70;99.90;;;;;;5056414;28;20132;-79
2021/12/16 11:57:18;;;;;;;48.97;17.65;;;7.60;99.90;;;;;;5095445;28;20109;-79
2021/12/16 11:59:46;;;;;;;60.22;18.65;;;7.70;99.90;;;;;;5088310;28;20055;-79
2021/12/16 12:02:39;;;;;;;108.82;22.45;;;7.70;99.90;;;;;;5037306;28;20049;-79
2021/12/16 12:05:40;;;;;;;38.35;17.52;;;7.80;99.90;;;;;;5068242;28;20031;-79
2021/12/16 12:08:09;;;;;;;64.75;19.13;;;7.80;99.90;;;;;;5062563;28;20058;-79
2021/12/16 12:10:37;;;;;;;80.60;20.95;;;7.80;99.90;;;;;;5075249;28;20408;-79
2021/12/16 12:13:06;;;;;;;124.30;19.90;;;7.80;99.90;;;;;;5068855;28;20136;-79
2021/12/16 12:15:52;;;;;;;35.22;17.60;;;8.60;99.90;;;;;;5075335;28;20072;-79
2021/12/16 12:18:38;;;;;;;69.93;20.25;;;7.90;99.90;;;;;;5062251;28;20395;-80
2021/12/16 12:21:34;;;;;;;103.85;20.58;;;7.90;99.90;;;;;;5056345;28;20050;-79
2021/12/16 12:24:08;;;;;;;118.47;21.50;;;9.20;99.90;;;;;;5072781;28;20045;-79
2021/12/16 12:26:41;;;;;;;57.38;18.77;;;7.90;99.90;;;;;;5092577;28;20077;-80
2021/12/16 12:29:18;;;;;;;44.30;17.40;;;7.90;99.90;;;;;;5062250;28;20066;-80
2021/12/16 12:31:51;;;;;;;133.95;19.42;;;7.90;99.90;;;;;;5038254;28;20045;-79
2021/12/16 12:34:17;;;;;;;163.88;27.00;;;8.00;99.90;;;;;;5086275;28;20513;-79
2021/12/16 12:36:45;;;;;;;115.28;22.20;;;7.90;99.90;;;;;;5066605;28;20046;-78
2021/12/16 12:39:15;;;;;;;95.85;20.35;;;8.00;99.90;;;;;;5085546;28;20046;-80
2021/12/16 12:41:42;;;;;;;35.53;17.45;;;8.00;99.90;;;;;;5072409;28;20040;-79
2021/12/16 12:44:07;;;;;;;89.45;21.80;;;8.00;99.90;;;;;;5077514;28;20062;-79
2021/12/16 12:46:35;;;;;;;48.10;18.65;;;8.10;99.90;;;;;;5075316;28;20041;-80
2021/12/16 12:49:07;;;;;;;80.82;22.30;;;8.00;99.90;;;;;;5079437;28;20052;-80
2021/12/16 12:51:39;;;;;;;125.15;23.17;;;7.90;99.90;;;;;;5064179;28;20045;-80
2021/12/16 12:54:27;;;;;;;78.97;21.83;;;8.10;99.90;;;;;;5065972;28;20053;-79
2021/12/16 12:56:57;;;;;;;94.18;21.45;;;8.10;99.90;;;;;;5041712;28;20080;-80
2021/12/16 12:59:37;;;;;;;128.68;22.35;;;8.10;99.90;;;;;;5073665;28;20055;-80
2021/12/16 13:02:14;;;;;;;106.65;24.30;;;8.10;99.90;;;;;;5068970;28;20475;-79
2021/12/16 13:04:53;;;;;;;54.35;22.02;;;8.10;99.90;;;;;;5059211;28;20106;-79
2021/12/16 13:07:40;;;;;;;92.18;21.33;;;8.20;99.90;;;;;;5064792;28;20044;-78
2021/12/16 13:10:32;;;;;;;95.90;22.50;;;8.20;99.90;;;;;;5082532;28;20086;-79
2021/12/16 13:13:57;;;;;;;96.95;22.67;;;8.20;99.90;;;;;;5064936;28;20505;-79
2021/12/16 13:27:12;;;;;;;82.53;22.92;;;8.30;99.90;;;;;;5091834;28;20519;-80
2021/12/16 13:29:54;;;;;;;71.32;19.70;;;8.20;99.90;;;;;;5059668;28;20048;-80
2021/12/16 13:32:32;;;;;;;58.83;18.40;;;8.30;99.90;;;;;;5052777;28;20054;-80
2021/12/16 13:35:53;;;;;;;44.70;16.60;;;8.30;99.90;;;;;;5071586;28;20159;-79
2021/12/16 13:37:55;;;;;;;37.60;14.27;;;8.30;99.90;;;;;;5058395;28;20488;-80
2021/12/16 13:40:23;;;;;;;64.55;21.27;;;8.20;99.90;;;;;;5054375;28;20129;-80
2021/12/16 13:42:59;;;;;;;46.55;16.95;;;8.30;99.90;;;;;;5055179;28;20394;-79
2021/12/16 13:45:32;;;;;;;52.25;15.05;;;8.40;99.90;;;;;;5043204;28;20095;-79
2021/12/16 14:05:05;;;;;;;38.53;13.32;;;8.30;99.90;;;;;;5053474;28;20054;-80
2021/12/16 14:07:54;;;;;;;38.50;13.80;;;8.20;99.90;;;;;;5064936;28;20072;-80
2021/12/16 14:10:28;;;;;;;21.50;10.13;;;8.30;99.90;;;;;;5057235;28;20049;-80
2021/12/16 14:23:02;;;;;;;17.35;7.38;;;8.20;99.90;;;;;;5094241;28;20773;-79
2021/12/16 14:24:29;;;;;;;24.60;7.22;;;8.10;99.90;;;;;;5048643;28;20064;-80
2021/12/16 14:38:12;;;;;;;48.55;11.82;;;8.10;99.90;;;;;;5047918;28;20046;-80
2021/12/16 14:41:02;;;;;;;38.38;11.52;;;8.10;99.90;;;;;;5046230;28;20034;-80
2021/12/16 14:43:38;;;;;;;24.88;10.63;;;9.20;99.90;;;;;;5089599;28;20168;-79
2021/12/16 14:46:06;;;;;;;37.80;12.07;;;8.10;99.90;;;;;;5086972;28;20038;-78
2021/12/16 14:48:35;;;;;;;34.53;12.23;;;8.20;99.90;;;;;;5027708;28;20501;-80
2021/12/16 14:51:11;;;;;;;33.70;11.52;;;8.10;99.90;;;;;;5067703;28;20046;-80
2021/12/16 14:53:40;;;;;;;46.88;13.25;;;8.20;99.90;;;;;;5060174;28;20077;-80
2021/12/16 14:56:23;;;;;;;35.05;12.82;;;8.10;99.90;;;;;;5059760;28;20050;-80
2021/12/16 14:58:56;;;;;;;39.83;12.32;;;8.20;99.90;;;;;;5056649;28;20038;-80
2021/12/16 15:01:29;;;;;;;46.30;13.48;;;8.20;99.90;;;;;;5017753;28;20042;-78
2021/12/16 15:03:55;;;;;;;26.67;11.20;;;8.20;99.90;;;;;;5063289;28;20099;-79
2021/12/16 15:06:31;;;;;;;25.33;10.70;;;8.20;99.90;;;;;;5077095;28;20030;-79
2021/12/16 15:09:13;;;;;;;29.13;12.00;;;8.20;99.90;;;;;;5094315;28;20055;-79
2021/12/16 15:11:51;;;;;;;33.35;12.73;;;8.30;99.90;;;;;;5073087;28;20130;-79
2021/12/16 15:31:49;;;;;;;37.13;14.43;;;8.00;99.90;;;;;;5054177;28;20478;-79
2021/12/16 15:43:03;;;;;;;50.53;18.95;;;8.30;99.90;;;;;;5072151;28;20045;-79
2021/12/16 15:45:52;;;;;;;34.17;16.23;;;7.70;99.90;;;;;;5060179;28;20053;-80
2021/12/16 15:48:23;;;;;;;31.65;16.88;;;8.30;99.90;;;;;;5067485;28;20409;-81
2021/12/16 15:50:54;;;;;;;35.22;17.02;;;9.10;99.90;;;;;;5081990;28;20096;-81
2021/12/16 15:53:23;;;;;;;34.72;17.85;;;8.20;99.90;;;;;;5085331;28;20052;-81
2021/12/16 15:55:52;;;;;;;33.85;17.75;;;8.30;99.90;;;;;;5057407;28;20073;-81
2021/12/16 15:58:22;;;;;;;29.77;16.80;;;8.30;99.90;;;;;;5018471;28;20046;-81
2021/12/16 16:01:02;;;;;;;36.42;17.80;;;8.30;99.90;;;;;;5084632;28;20135;-82
2021/12/16 16:03:29;;;;;;;34.50;18.13;;;10.00;99.90;;;;;;5075790;28;20043;-81
2021/12/16 16:06:02;;;;;;;37.70;18.27;;;8.30;99.90;;;;;;5049962;28;20054;-82
2021/12/16 16:08:31;;;;;;;45.00;25.17;;;8.30;99.90;;;;;;5078399;28;20045;-83
2021/12/16 16:11:01;;;;;;;79.13;51.58;;;8.30;99.90;;;;;;5058036;28;20054;-82
2021/12/16 16:13:30;;;;;;;56.25;31.65;;;8.30;99.90;;;;;;5057936;28;20041;-81
2021/12/16 16:16:03;;;;;;;39.53;23.10;;;8.40;99.90;;;;;;5075215;28;20042;-82
2021/12/16 16:18:35;;;;;;;38.97;20.52;;;9.70;99.90;;;;;;5050271;28;20468;-82
2021/12/16 16:21:16;;;;;;;35.95;18.67;;;8.40;99.90;;;;;;5074901;28;20093;-81
2021/12/16 16:23:46;;;;;;;35.42;18.90;;;8.40;99.90;;;;;;5072527;28;20473;-83
2021/12/16 16:26:14;;;;;;;36.58;20.55;;;8.40;99.90;;;;;;5075009;28;20042;-81
2021/12/16 16:28:42;;;;;;;44.13;22.00;;;8.40;99.90;;;;;;5058592;28;20093;-81
2021/12/16 16:31:20;;;;;;;40.05;22.13;;;8.40;99.90;;;;;;5072354;28;20129;-80
2021/12/16 16:33:47;;;;;;;33.83;18.92;;;8.40;99.90;;;;;;5071875;28;20045;-81
2021/12/16 16:36:16;;;;;;;43.00;22.00;;;8.50;99.90;;;;;;5070040;28;20043;-80
2021/12/16 16:38:51;;;;;;;34.92;20.23;;;8.40;99.90;;;;;;5091893;28;20120;-78
2021/12/16 16:41:20;;;;;;;59.05;23.85;;;8.50;99.90;;;;;;5085586;28;20047;-82
2021/12/16 16:43:55;;;;;;;43.72;21.30;;;8.50;99.90;;;;;;5058443;28;20523;-81
2021/12/16 16:46:31;;;;;;;51.70;23.05;;;8.40;99.90;;;;;;5066352;28;20286;-80
2021/12/16 16:51:45;;;;;;;38.33;21.13;;;8.40;99.90;;;;;;5076290;28;20050;-78
2021/12/16 16:54:32;;;;;;;35.00;20.73;;;8.50;99.90;;;;;;5053889;28;20054;-84
2021/12/16 16:57:30;;;;;;;47.38;22.00;;;8.50;99.90;;;;;;5058367;28;20038;-77
2021/12/16 16:59:58;;;;;;;55.15;24.88;;;8.40;99.90;;;;;;5039159;28;20050;-80
2021/12/16 17:02:40;;;;;;;57.45;23.42;;;8.50;99.90;;;;;;5057594;28;20141;-82
2021/12/16 17:05:06;;;;;;;52.17;22.52;;;8.40;99.90;;;;;;5069761;28;20046;-81
2021/12/16 17:07:50;;;;;;;47.60;22.77;;;8.40;99.90;;;;;;5057899;28;20065;-78